Time;durP1;ratioP1;P1;durP2;ratioP2;P2;SDS_P1;SDS_P2;PMS_P1;PMS_P2;Temp;Humidity;BMP_temperature;BMP_pressure;BME280_temperature;BME280_humidity;BME280_pressure;Samples;Min_cycle;Max_cycle;Signal;HPM_P1;HPM_P2
2023/08/23 00:02:24;;;;;;;4.93;2.72;;;;;;;18.58;100.00;101956.22;5242439;28;20058;-71
2023/08/23 00:04:55;;;;;;;4.53;2.90;;;;;;;18.55;100.00;101947.75;5242247;28;20025;-73
2023/08/23 00:07:26;;;;;;;5.03;2.85;;;;;;;18.53;100.00;101952.41;5239128;28;20029;-74
2023/08/23 00:09:58;;;;;;;3.55;2.88;;;;;;;18.47;100.00;101951.19;5242473;28;20024;-74
2023/08/23 00:12:29;;;;;;;6.00;2.72;;;;;;;18.46;100.00;101944.22;5242958;28;20029;-73
2023/08/23 00:15:00;;;;;;;3.72;2.53;;;;;;;18.43;100.00;101945.34;5240942;28;20040;-70
2023/08/23 00:17:32;;;;;;;3.92;2.90;;;;;;;18.43;100.00;101949.81;5242590;28;20036;-71
2023/08/23 00:20:04;;;;;;;5.53;2.92;;;;;;;18.34;100.00;101951.59;5243317;28;20565;-71
2023/08/23 00:22:35;;;;;;;4.50;2.95;;;;;;;18.30;100.00;101936.13;5239330;28;20428;-72
2023/08/23 00:25:07;;;;;;;3.70;2.50;;;;;;;18.37;100.00;101948.63;5240902;28;20063;-74
2023/08/23 00:27:39;;;;;;;4.93;2.85;;;;;;;18.35;100.00;101947.13;5243484;28;20515;-71
2023/08/23 00:30:11;;;;;;;5.15;2.60;;;;;;;18.36;100.00;101956.72;5239891;28;20139;-72
2023/08/23 00:32:42;;;;;;;5.90;2.88;;;;;;;18.36;100.00;101948.78;5236627;28;20029;-71
2023/08/23 00:35:13;;;;;;;4.03;2.65;;;;;;;18.31;100.00;101940.44;5245520;28;20072;-71
2023/08/23 00:37:44;;;;;;;3.97;2.30;;;;;;;18.19;100.00;101938.03;5244733;28;20041;-74
2023/08/23 00:40:18;;;;;;;6.15;2.33;;;;;;;18.24;100.00;101933.09;5243239;28;20533;-71
2023/08/23 00:42:50;;;;;;;5.50;2.70;;;;;;;18.06;100.00;101928.78;5246823;28;20589;-73
2023/08/23 00:45:21;;;;;;;4.80;2.58;;;;;;;18.06;100.00;101913.72;5246290;28;20013;-73
2023/08/23 00:47:52;;;;;;;5.32;3.03;;;;;;;18.10;100.00;101920.38;5245852;28;20036;-71
2023/08/23 00:50:24;;;;;;;3.78;2.20;;;;;;;18.09;100.00;101913.41;5244299;28;20051;-71
2023/08/23 00:52:55;;;;;;;3.22;2.40;;;;;;;18.07;100.00;101911.88;5243775;28;20102;-71
2023/08/23 00:55:27;;;;;;;2.92;2.20;;;;;;;18.05;100.00;101925.31;5245859;28;20029;-71
2023/08/23 00:57:58;;;;;;;4.47;2.22;;;;;;;17.99;100.00;101916.16;5243649;28;20083;-71
2023/08/23 01:00:30;;;;;;;6.22;2.05;;;;;;;17.95;100.00;101908.66;5243436;28;20409;-71
2023/08/23 01:03:02;;;;;;;2.88;2.03;;;;;;;17.91;100.00;101912.59;5244039;28;20362;-71
2023/08/23 01:06:04;;;;;;;5.57;2.55;;;;;;;18.24;100.00;101917.19;5246937;28;20107;-71
2023/08/23 01:08:45;;;;;;;3.65;2.00;;;;;;;18.05;100.00;101914.72;5244700;28;20358;-71
2023/08/23 01:11:23;;;;;;;4.07;2.03;;;;;;;17.93;100.00;101918.59;5245902;28;20064;-71
2023/08/23 01:14:24;;;;;;;2.97;1.90;;;;;;;18.14;100.00;101921.72;5244949;28;20300;-72
2023/08/23 01:16:57;;;;;;;3.83;1.70;;;;;;;17.91;100.00;101923.19;5243197;28;20037;-71
2023/08/23 01:19:46;;;;;;;3.10;1.90;;;;;;;18.16;100.00;101914.47;5244237;28;20120;-71
2023/08/23 01:22:20;;;;;;;2.88;1.90;;;;;;;17.89;100.00;101919.88;5244458;28;20029;-71
2023/08/23 01:24:51;;;;;;;3.67;2.10;;;;;;;17.75;100.00;101916.75;5241098;28;20031;-71
2023/08/23 01:27:22;;;;;;;3.28;2.10;;;;;;;17.84;100.00;101927.44;5245357;28;20456;-71
2023/08/23 01:29:54;;;;;;;3.60;1.85;;;;;;;17.81;100.00;101923.28;5245868;28;20033;-71
2023/08/23 01:32:51;;;;;;;3.53;2.10;;;;;;;17.88;100.00;101936.75;5242774;28;20028;-71
2023/08/23 01:35:30;;;;;;;4.63;2.30;;;;;;;17.77;100.00;101921.94;5244462;28;20345;-71
2023/08/23 01:38:01;;;;;;;2.88;1.85;;;;;;;17.64;100.00;101921.41;5245062;28;20033;-71
2023/08/23 01:40:33;;;;;;;2.70;2.05;;;;;;;17.63;100.00;101922.41;5245565;28;20059;-71
2023/08/23 01:43:04;;;;;;;2.70;1.83;;;;;;;17.68;100.00;101917.47;5244558;28;20056;-71
2023/08/23 01:45:35;;;;;;;3.72;2.40;;;;;;;17.65;100.00;101909.81;5245092;28;20021;-71
2023/08/23 01:48:07;;;;;;;6.70;2.20;;;;;;;17.63;100.00;101896.72;5242852;28;20033;-71
2023/08/23 01:50:38;;;;;;;2.88;2.13;;;;;;;17.65;100.00;101909.81;5240848;28;20123;-71
2023/08/23 01:53:09;;;;;;;4.07;2.35;;;;;;;17.64;100.00;101903.69;5239987;28;20091;-71
2023/08/23 01:55:40;;;;;;;2.80;1.80;;;;;;;17.63;100.00;101904.69;5244938;28;20052;-73
2023/08/23 01:58:11;;;;;;;3.10;1.92;;;;;;;17.61;100.00;101911.94;5245153;28;20049;-71
2023/08/23 02:00:47;;;;;;;3.35;2.08;;;;;;;17.68;100.00;101915.66;5243503;28;20048;-72
2023/08/23 02:03:18;;;;;;;2.60;1.95;;;;;;;17.47;100.00;101915.13;5245049;28;20036;-72
2023/08/23 02:05:50;;;;;;;2.97;2.22;;;;;;;17.44;100.00;101918.91;5241736;28;20407;-72
2023/08/23 02:08:21;;;;;;;5.32;2.28;;;;;;;17.43;100.00;101903.16;5244466;28;20025;-73
2023/08/23 02:10:52;;;;;;;3.00;2.03;;;;;;;17.40;100.00;101906.09;5242389;28;20029;-71
2023/08/23 02:13:23;;;;;;;3.88;2.40;;;;;;;17.32;100.00;101906.84;5244441;28;20034;-71
2023/08/23 02:15:55;;;;;;;2.70;1.92;;;;;;;17.35;100.00;101909.19;5244160;28;20025;-72
2023/08/23 02:18:26;;;;;;;5.03;2.20;;;;;;;17.31;100.00;101901.69;5244183;28;20319;-71
2023/08/23 02:20:58;;;;;;;5.00;2.13;;;;;;;17.30;100.00;101915.91;5238810;28;20036;-71
2023/08/23 02:23:29;;;;;;;3.60;2.30;;;;;;;17.24;100.00;101915.53;5244310;28;20040;-71
2023/08/23 02:26:01;;;;;;;3.95;2.20;;;;;;;17.15;100.00;101908.44;5227036;28;20048;-72
2023/08/23 02:28:32;;;;;;;3.53;2.30;;;;;;;17.15;100.00;101908.44;5242922;28;20505;-71
2023/08/23 02:31:03;;;;;;;3.90;1.95;;;;;;;17.13;100.00;101897.19;5241492;28;20029;-74
2023/08/23 02:33:35;;;;;;;4.22;2.97;;;;;;;17.14;100.00;101895.38;5244459;28;20021;-74
2023/08/23 02:36:06;;;;;;;5.10;2.20;;;;;;;17.13;100.00;101904.31;5243204;28;20028;-72
2023/08/23 02:38:37;;;;;;;2.65;2.17;;;;;;;17.06;100.00;101904.03;5241579;28;20030;-71
2023/08/23 02:41:08;;;;;;;3.83;2.08;;;;;;;17.08;100.00;101906.53;5241930;28;20072;-71
2023/08/23 02:43:40;;;;;;;3.25;2.03;;;;;;;17.01;100.00;101903.66;5243971;28;20025;-71
2023/08/23 02:46:11;;;;;;;3.70;2.05;;;;;;;17.00;100.00;101896.69;5243346;28;20021;-71
2023/08/23 02:48:43;;;;;;;3.45;2.20;;;;;;;16.98;100.00;101906.59;5245013;28;20033;-72
2023/08/23 02:51:14;;;;;;;5.13;2.20;;;;;;;16.97;100.00;101910.19;5241249;28;20395;-71
2023/08/23 02:53:45;;;;;;;4.68;2.17;;;;;;;16.89;100.00;101903.00;5242004;28;20025;-74
2023/08/23 02:56:16;;;;;;;3.03;2.10;;;;;;;16.89;100.00;101902.16;5241253;28;20056;-71
2023/08/23 02:58:48;;;;;;;2.88;2.17;;;;;;;16.83;100.00;101889.53;5241008;28;20029;-71
2023/08/23 03:01:19;;;;;;;2.97;2.08;;;;;;;16.80;100.00;101888.00;5241409;28;20032;-70
2023/08/23 03:03:50;;;;;;;3.33;2.13;;;;;;;16.76;100.00;101884.81;5243420;28;20024;-72
2023/08/23 03:06:21;;;;;;;3.50;1.92;;;;;;;16.75;100.00;101893.72;5244010;28;20029;-70
2023/08/23 03:08:53;;;;;;;4.72;2.22;;;;;;;16.74;100.00;101891.22;5242597;28;20025;-71
2023/08/23 03:11:24;;;;;;;3.95;2.00;;;;;;;16.66;100.00;101878.66;5239745;28;20470;-70
2023/08/23 03:13:56;;;;;;;2.90;2.17;;;;;;;16.71;100.00;101892.31;5243309;28;20021;-71
2023/08/23 03:16:27;;;;;;;2.97;2.05;;;;;;;16.66;100.00;101889.25;5243475;28;20029;-70
2023/08/23 03:18:58;;;;;;;5.72;2.25;;;;;;;16.58;100.00;101886.50;5241869;28;20405;-72
2023/08/23 03:21:30;;;;;;;3.60;1.90;;;;;;;16.62;100.00;101887.88;5241477;28;20629;-71
2023/08/23 03:24:01;;;;;;;3.72;2.03;;;;;;;16.64;100.00;101888.59;5244626;28;20036;-71
2023/08/23 03:26:32;;;;;;;4.03;1.85;;;;;;;16.56;100.00;101882.34;5241555;28;20036;-73
2023/08/23 03:29:04;;;;;;;4.80;2.22;;;;;;;16.55;100.00;101876.19;5241664;28;20535;-71
2023/08/23 03:31:35;;;;;;;3.17;1.80;;;;;;;16.60;100.00;101884.56;5243208;28;20091;-72
2023/08/23 03:34:06;;;;;;;5.38;2.03;;;;;;;16.58;100.00;101883.84;5223664;28;20393;-71
2023/08/23 03:36:37;;;;;;;2.85;2.10;;;;;;;16.61;100.00;101886.22;5243281;28;20017;-71
2023/08/23 03:39:09;;;;;;;4.20;1.98;;;;;;;16.56;100.00;101893.75;5244097;28;20037;-71
2023/08/23 03:41:40;;;;;;;3.88;2.20;;;;;;;16.52;100.00;101890.56;5240391;28;20357;-72
2023/08/23 03:44:11;;;;;;;3.00;2.42;;;;;;;16.46;100.00;101890.31;5242446;28;20639;-72
2023/08/23 03:46:43;;;;;;;4.60;1.83;;;;;;;16.46;100.00;101879.72;5241587;28;20029;-72
2023/08/23 03:49:14;;;;;;;4.32;2.53;;;;;;;16.46;100.00;101874.44;5241718;28;20714;-71
2023/08/23 03:51:45;;;;;;;2.92;2.10;;;;;;;16.44;100.00;101879.00;5236743;28;20049;-70
2023/08/23 03:54:19;;;;;;;3.17;2.05;;;;;;;16.56;100.00;101875.25;5243220;28;20040;-71
2023/08/23 03:56:51;;;;;;;4.30;2.25;;;;;;;16.46;100.00;101887.66;5243691;28;20037;-72
2023/08/23 03:59:22;;;;;;;3.10;1.75;;;;;;;16.53;100.00;101892.22;5224918;28;20033;-72
2023/08/23 04:01:53;;;;;;;2.70;1.85;;;;;;;16.60;100.00;101889.03;5238687;28;20116;-71
2023/08/23 04:04:24;;;;;;;3.60;2.10;;;;;;;16.60;100.00;101889.03;5243728;28;20384;-71
2023/08/23 04:06:56;;;;;;;4.68;2.13;;;;;;;16.58;100.00;101883.84;5242409;28;20386;-72
2023/08/23 04:09:27;;;;;;;3.03;1.90;;;;;;;16.56;100.00;101885.81;5244281;28;20343;-73
2023/08/23 04:11:58;;;;;;;2.67;1.98;;;;;;;16.58;100.00;101890.97;5245556;28;20032;-71
2023/08/23 04:14:29;;;;;;;3.30;2.22;;;;;;;16.56;100.00;101888.47;5246031;28;20103;-73
2023/08/23 04:17:01;;;;;;;4.38;2.10;;;;;;;16.57;100.00;101895.44;5229204;28;20036;-72
2023/08/23 04:19:33;;;;;;;3.90;1.90;;;;;;;16.51;100.00;101893.34;5245918;28;20035;-73
2023/08/23 04:22:04;;;;;;;2.72;2.10;;;;;;;16.43;100.00;101887.94;5244737;28;20030;-71
2023/08/23 04:24:35;;;;;;;2.83;2.03;;;;;;;16.38;100.00;101893.66;5247834;28;20033;-71
2023/08/23 04:27:06;;;;;;;3.72;2.15;;;;;;;16.30;100.00;101880.31;5246060;28;20094;-72
2023/08/23 04:29:38;;;;;;;3.10;1.95;;;;;;;16.26;100.00;101897.44;5246530;28;20032;-71
2023/08/23 04:32:12;;;;;;;3.47;2.20;;;;;;;16.28;100.00;101890.19;5245678;28;20033;-73
2023/08/23 04:34:43;;;;;;;4.35;2.45;;;;;;;16.16;100.00;101888.69;5246592;28;20750;-73
2023/08/23 04:37:15;;;;;;;5.30;2.67;;;;;;;16.19;100.00;101902.44;5242290;28;20497;-71
2023/08/23 04:39:46;;;;;;;4.45;2.72;;;;;;;16.13;100.00;101895.06;5246173;28;20102;-71
2023/08/23 04:42:18;;;;;;;6.93;3.05;;;;;;;16.18;100.00;101895.50;5245360;28;20045;-72
2023/08/23 04:44:49;;;;;;;5.95;2.25;;;;;;;16.33;100.00;101900.34;5245806;28;20049;-71
2023/08/23 04:47:20;;;;;;;6.15;2.97;;;;;;;16.26;100.00;101895.63;5246013;28;20032;-71
2023/08/23 04:49:51;;;;;;;7.18;2.83;;;;;;;16.29;100.00;101899.81;5246323;28;20106;-72
2023/08/23 04:52:23;;;;;;;6.93;2.85;;;;;;;16.30;100.00;101897.00;5240039;28;20036;-72
2023/08/23 04:54:54;;;;;;;12.95;3.30;;;;;;;16.36;100.00;101895.59;5246255;28;20035;-72
2023/08/23 04:57:25;;;;;;;6.68;2.60;;;;;;;16.35;100.00;101896.59;5245194;28;20133;-71
2023/08/23 04:59:57;;;;;;;13.45;2.42;;;;;;;16.35;100.00;101898.41;5246468;28;20083;-73
2023/08/23 05:02:28;;;;;;;8.05;4.15;;;;;;;16.40;100.00;101901.44;5244395;28;20112;-71
2023/08/23 05:04:59;;;;;;;5.90;3.03;;;;;;;16.50;100.00;101899.63;5243456;28;20486;-73
2023/08/23 05:07:30;;;;;;;8.35;2.85;;;;;;;16.49;100.00;101893.50;5244700;28;20112;-71
2023/08/23 05:10:04;;;;;;;5.68;2.80;;;;;;;16.57;100.00;101892.78;5244060;28;20030;-71
2023/08/23 05:12:35;;;;;;;8.82;3.53;;;;;;;16.62;100.00;101895.81;5246097;28;20284;-71
2023/08/23 05:15:07;;;;;;;6.55;3.40;;;;;;;16.72;100.00;101890.50;5245472;28;20017;-70
2023/08/23 05:17:38;;;;;;;6.93;3.80;;;;;;;16.78;100.00;101884.66;5245283;28;20036;-72
2023/08/23 05:20:10;;;;;;;6.88;2.90;;;;;;;16.83;100.00;101882.41;5241966;28;20056;-72
2023/08/23 05:22:42;;;;;;;8.77;3.47;;;;;;;16.88;100.00;101876.69;5244057;28;20036;-71
2023/08/23 05:25:13;;;;;;;7.78;3.45;;;;;;;16.92;100.00;101880.69;5244843;28;20068;-71
2023/08/23 05:27:44;;;;;;;10.07;3.95;;;;;;;16.97;100.00;101886.38;5229308;28;20087;-71
2023/08/23 05:30:15;;;;;;;5.45;4.05;;;;;;;16.99;100.00;101887.06;5247562;28;20040;-73
2023/08/23 05:32:47;;;;;;;8.25;4.10;;;;;;;17.03;100.00;101889.28;5247822;28;20086;-71
2023/08/23 05:35:18;;;;;;;7.40;4.25;;;;;;;17.01;100.00;101887.78;5247673;28;20040;-71
2023/08/23 05:37:49;;;;;;;12.15;4.03;;;;;;;16.96;100.00;101888.19;5243489;28;20035;-71
2023/08/23 05:40:21;;;;;;;9.00;3.75;;;;;;;16.97;100.00;101881.09;5222748;28;20033;-71
2023/08/23 05:42:52;;;;;;;6.87;4.10;;;;;;;16.88;100.00;101874.03;5242470;28;20056;-73
2023/08/23 05:45:26;;;;;;;6.85;3.40;;;;;;;16.93;100.00;101895.59;5244171;28;20282;-71
2023/08/23 05:48:02;;;;;;;8.23;3.70;;;;;;;16.92;100.00;101893.94;5241469;28;20853;-71
2023/08/23 05:50:33;;;;;;;9.48;4.00;;;;;;;16.89;100.00;101891.56;5242722;28;20029;-71
2023/08/23 05:53:09;;;;;;;6.95;4.10;;;;;;;16.96;100.00;101892.66;5238491;28;20075;-73
2023/08/23 05:55:40;;;;;;;12.57;3.53;;;;;;;17.02;100.00;101897.38;5241979;28;20026;-73
2023/08/23 05:58:12;;;;;;;17.15;4.47;;;;;;;17.10;100.00;101900.13;5244115;28;20311;-71
2023/08/23 06:00:44;;;;;;;19.20;4.75;;;;;;;17.11;100.00;101895.66;5240337;28;20120;-71
2023/08/23 06:03:15;;;;;;;12.68;4.38;;;;;;;17.17;100.00;101898.56;5243584;28;20405;-73
2023/08/23 06:05:47;;;;;;;16.92;4.13;;;;;;;17.25;100.00;101903.13;5244325;28;20030;-71
2023/08/23 06:08:18;;;;;;;9.63;4.70;;;;;;;17.26;100.00;101907.41;5241548;28;20025;-73
2023/08/23 06:10:50;;;;;;;8.75;4.97;;;;;;;17.33;100.00;101905.84;5245089;28;20024;-72
2023/08/23 06:13:22;;;;;;;11.43;4.88;;;;;;;17.43;100.00;101908.47;5249069;28;20025;-73
2023/08/23 06:15:53;;;;;;;6.85;4.70;;;;;;;17.45;100.00;101899.34;5245817;28;20033;-72
2023/08/23 06:18:25;;;;;;;8.55;5.07;;;;;;;17.56;100.00;101910.72;5244436;28;20375;-72
2023/08/23 06:20:56;;;;;;;7.85;5.18;;;;;;;17.63;100.00;101909.16;5241544;28;20098;-72
2023/08/23 06:23:28;;;;;;;7.80;5.13;;;;;;;17.73;100.00;101902.81;5242373;28;20513;-72
2023/08/23 06:26:02;;;;;;;8.82;5.97;;;;;;;17.89;100.00;101911.94;5242128;28;20056;-74
2023/08/23 06:28:33;;;;;;;7.07;5.93;;;;;;;17.94;100.00;101915.78;5244992;28;20036;-71
2023/08/23 06:31:05;;;;;;;6.45;5.53;;;;;;;18.08;100.00;101905.63;5238851;28;20027;-72
2023/08/23 06:33:36;;;;;;;9.38;6.13;;;;;;;18.24;100.00;101911.03;5244185;28;20056;-74
2023/08/23 06:36:09;;;;;;;7.38;5.95;;;;;;;18.31;100.00;101903.31;5248829;28;20044;-71
2023/08/23 06:38:44;;;;;;;9.73;6.47;;;;;;;18.48;100.00;101908.56;5228706;28;20489;-73
2023/08/23 06:41:15;;;;;;;10.18;6.88;;;;;;;18.51;100.00;101909.25;5236738;28;20036;-71
2023/08/23 06:43:47;;;;;;;8.60;7.07;;;;;;;18.64;100.00;101913.16;5242953;28;20032;-71
2023/08/23 06:46:19;;;;;;;7.13;6.38;;;;;;;18.68;100.00;101916.34;5243790;28;20267;-71
2023/08/23 06:48:50;;;;;;;8.82;5.60;;;;;;;18.84;100.00;101918.25;5245076;28;20032;-72
2023/08/23 06:51:22;;;;;;;7.78;6.35;;;;;;;18.93;100.00;101906.69;5242590;28;20552;-71
2023/08/23 06:53:53;;;;;;;8.13;6.30;;;;;;;19.05;100.00;101901.91;5242325;28;20032;-71
2023/08/23 06:56:26;;;;;;;7.75;5.93;;;;;;;19.22;100.00;101918.75;5243412;28;20060;-71
2023/08/23 06:58:57;;;;;;;6.73;6.10;;;;;;;19.36;100.00;101916.31;5245579;28;20086;-71
2023/08/23 07:01:28;;;;;;;7.72;6.18;;;;;;;19.48;100.00;101929.31;5245743;28;20282;-71
2023/08/23 07:03:59;;;;;;;11.33;6.53;;;;;;;19.59;100.00;101934.31;5244654;28;20060;-72
2023/08/23 07:06:31;;;;;;;6.95;5.95;;;;;;;19.75;100.00;101926.41;5245608;28;20445;-71
2023/08/23 07:09:02;;;;;;;6.80;6.00;;;;;;;19.90;100.00;101931.91;5242906;28;20619;-71
2023/08/23 07:11:33;;;;;;;8.73;5.80;;;;;;;19.89;100.00;101919.63;5245136;28;20028;-72
2023/08/23 07:14:06;;;;;;;10.95;5.80;;;;;;;20.11;100.00;101932.22;5245621;28;20390;-73
2023/08/23 07:16:38;;;;;;;9.35;6.22;;;;;;;20.20;100.00;101943.72;5228723;28;20500;-71
2023/08/23 07:19:09;;;;;;;9.10;6.27;;;;;;;20.35;100.00;101942.06;5244510;28;20036;-71
2023/08/23 07:21:40;;;;;;;8.63;5.83;;;;;;;20.54;100.00;101940.06;5244730;28;20026;-72
2023/08/23 07:24:11;;;;;;;6.37;5.77;;;;;;;20.59;100.00;101948.38;5245763;28;20104;-72
2023/08/23 07:26:43;;;;;;;7.53;6.10;;;;;;;20.71;100.00;101946.19;5244073;28;20028;-72
2023/08/23 07:29:16;;;;;;;11.25;6.32;;;;;;;20.84;100.00;101947.31;5246908;28;20112;-74
2023/08/23 07:31:47;;;;;;;8.10;5.47;;;;;;;20.90;100.00;101945.81;5245963;28;20025;-71
2023/08/23 07:34:19;;;;;;;7.10;4.73;;;;;;;21.09;100.00;101948.06;5246626;28;20031;-74
2023/08/23 07:36:50;;;;;;;5.87;4.97;;;;;;;21.19;100.00;101955.88;5227215;28;20036;-73
2023/08/23 07:39:23;;;;;;;7.90;4.70;;;;;;;21.29;100.00;101950.31;5245827;28;20029;-73
2023/08/23 07:41:55;;;;;;;8.88;4.80;;;;;;;21.36;100.00;101954.81;5223235;28;20060;-73
2023/08/23 07:44:26;;;;;;;8.63;5.20;;;;;;;21.55;100.00;101958.88;5244112;28;20878;-74
2023/08/23 07:46:57;;;;;;;7.17;4.77;;;;;;;21.66;100.00;101964.81;5244329;28;20496;-72
2023/08/23 07:49:28;;;;;;;5.90;5.13;;;;;;;21.78;100.00;101960.72;5246352;28;20433;-73
2023/08/23 07:52:00;;;;;;;6.70;4.93;;;;;;;21.84;100.00;101962.72;5246234;28;20358;-73
2023/08/23 07:54:31;;;;;;;6.67;5.30;;;;;;;21.93;100.00;101966.97;5244123;28;20473;-71
2023/08/23 07:57:02;;;;;;;8.17;5.10;;;;;;;22.12;100.00;101963.00;5246537;28;20078;-71
2023/08/23 07:59:33;;;;;;;5.93;5.00;;;;;;;22.23;100.00;101954.59;5244398;28;20044;-72
2023/08/23 08:02:06;;;;;;;9.47;4.83;;;;;;;22.31;100.00;101959.88;5244991;28;20075;-72
2023/08/23 08:04:37;;;;;;;11.33;5.73;;;;;;;22.44;100.00;101956.59;5245207;28;20033;-72
2023/08/23 08:07:08;;;;;;;6.60;4.50;;;;;;;22.64;100.00;101958.72;5245856;28;20305;-72
2023/08/23 08:09:40;;;;;;;5.97;4.13;;;;;;;22.67;100.00;101953.84;5245225;28;20331;-72
2023/08/23 08:12:11;;;;;;;8.47;4.83;;;;;;;22.74;100.00;101959.31;5245218;28;20354;-72
2023/08/23 08:14:43;;;;;;;6.13;4.50;;;;;;;22.83;100.00;101958.19;5243437;28;20505;-72
2023/08/23 08:17:14;;;;;;;6.63;4.87;;;;;;;22.99;100.00;101952.69;5245279;28;20036;-71
2023/08/23 08:19:45;;;;;;;6.20;3.83;;;;;;;23.20;100.00;101951.94;5246378;28;20551;-72
2023/08/23 08:22:17;;;;;;;5.67;4.37;;;;;;;23.25;100.00;101962.06;5243779;28;20528;-72
2023/08/23 08:24:48;;;;;;;5.57;4.07;;;;;;;23.22;99.98;101955.25;5245069;28;20032;-72
2023/08/23 08:27:19;;;;;;;5.13;3.40;;;;;;;23.49;100.00;101966.28;5244856;28;20053;-71
2023/08/23 08:29:51;;;;;;;6.50;3.73;;;;;;;23.63;98.03;101969.91;5242099;28;20061;-72
2023/08/23 08:32:22;;;;;;;6.40;3.30;;;;;;;23.75;96.31;101955.03;5235765;28;20025;-72
2023/08/23 08:34:55;;;;;;;7.17;3.27;;;;;;;23.86;88.35;101949.19;5239606;28;20545;-72
2023/08/23 08:37:26;;;;;;;5.35;3.10;;;;;;;24.03;93.28;101945.25;5244625;28;20296;-72
2023/08/23 08:39:57;;;;;;;4.97;3.10;;;;;;;24.10;91.97;101941.81;5242555;28;20044;-72
2023/08/23 08:42:29;;;;;;;6.53;3.90;;;;;;;24.10;87.32;101941.81;5241271;28;20130;-72
2023/08/23 08:45:01;;;;;;;6.37;2.90;;;;;;;24.14;86.67;101933.19;5243946;28;20426;-72
2023/08/23 08:47:32;;;;;;;4.40;2.43;;;;;;;24.38;86.80;101949.84;5243544;28;20028;-72
2023/08/23 08:50:04;;;;;;;5.43;2.90;;;;;;;24.45;80.81;101945.41;5240344;28;20033;-72
2023/08/23 08:52:41;;;;;;;5.43;3.07;;;;;;;24.64;82.88;101949.25;5242459;28;20029;-72
2023/08/23 08:55:13;;;;;;;4.68;2.72;;;;;;;24.60;79.54;101948.81;5243870;28;20561;-72
2023/08/23 08:57:46;;;;;;;6.00;2.65;;;;;;;24.69;81.39;101952.97;5227447;28;20025;-72
2023/08/23 09:00:22;;;;;;;6.30;3.10;;;;;;;24.85;80.91;101953.69;5244241;28;20033;-72
2023/08/23 09:02:57;;;;;;;7.85;3.30;;;;;;;24.88;77.20;101946.06;5249117;28;20201;-72
2023/08/23 09:05:28;;;;;;;9.52;3.35;;;;;;;24.91;75.67;101948.38;5245698;28;20029;-72
2023/08/23 09:08:00;;;;;;;7.43;3.33;;;;;;;25.08;75.74;101939.97;5245710;28;20068;-72
2023/08/23 09:10:32;;;;;;;4.95;3.20;;;;;;;25.22;75.73;101941.72;5248555;28;20020;-72
2023/08/23 09:13:03;;;;;;;11.97;3.40;;;;;;;25.32;74.24;101947.56;5249493;28;20401;-72
2023/08/23 09:15:34;;;;;;;7.13;3.17;;;;;;;25.42;74.13;101947.16;5247880;28;20454;-72
2023/08/23 09:18:06;;;;;;;7.40;2.97;;;;;;;25.39;68.95;101942.22;5244898;28;20032;-72
2023/08/23 09:20:37;;;;;;;8.47;3.60;;;;;;;25.49;70.04;101942.63;5248097;28;20064;-72
2023/08/23 09:23:08;;;;;;;9.40;3.73;;;;;;;25.54;69.67;101952.78;5243930;28;20394;-72
2023/08/23 09:25:39;;;;;;;10.97;3.73;;;;;;;25.66;74.57;101946.63;5243837;28;20063;-72
2023/08/23 09:28:15;;;;;;;8.00;3.77;;;;;;;25.83;74.58;101949.75;5248541;28;20094;-72
2023/08/23 09:30:49;;;;;;;6.53;3.90;;;;;;;26.01;73.84;101959.09;5244624;28;20489;-75
2023/08/23 09:33:20;;;;;;;8.98;6.03;;;;;;;25.86;71.53;101954.72;5245736;28;21039;-72
2023/08/23 09:35:52;;;;;;;6.37;4.27;;;;;;;26.07;70.53;101960.97;5247131;28;20123;-72
2023/08/23 09:38:24;;;;;;;8.93;4.18;;;;;;;26.16;73.27;101965.91;5245656;28;20486;-72
2023/08/23 09:40:55;;;;;;;8.00;4.07;;;;;;;26.29;70.85;101958.88;5221550;28;20028;-72
2023/08/23 09:43:30;;;;;;;6.88;4.68;;;;;;;26.34;68.28;101954.56;5247701;28;20053;-72
2023/08/23 09:46:03;;;;;;;9.68;4.50;;;;;;;26.41;67.51;101946.50;5230318;28;20261;-72
2023/08/23 09:48:36;;;;;;;7.15;4.55;;;;;;;26.48;68.90;101946.50;5230146;28;20445;-72
2023/08/23 09:51:09;;;;;;;6.50;3.50;;;;;;;26.68;69.78;101949.97;5248084;28;20032;-72
2023/08/23 09:53:46;;;;;;;9.52;5.10;;;;;;;26.72;65.91;101953.91;5246088;28;20111;-72
2023/08/23 09:56:17;;;;;;;6.85;4.90;;;;;;;26.65;67.84;101955.78;5244983;28;20048;-72
2023/08/23 09:58:49;;;;;;;8.83;4.63;;;;;;;26.57;66.36;101950.63;5231449;28;20350;-73
2023/08/23 10:01:25;;;;;;;6.93;4.70;;;;;;;26.83;67.96;101952.44;5245924;28;20037;-73
2023/08/23 10:03:57;;;;;;;6.68;4.55;;;;;;;26.64;64.48;101954.13;5228854;28;20024;-73
2023/08/23 10:06:30;;;;;;;5.97;4.00;;;;;;;26.73;66.12;101954.72;5247953;28;20465;-73
2023/08/23 10:09:03;;;;;;;7.93;3.95;;;;;;;26.80;66.95;101956.34;5246003;28;20326;-73
2023/08/23 10:11:35;;;;;;;7.90;4.60;;;;;;;26.54;65.19;101951.88;5246459;28;20196;-73
2023/08/23 10:14:08;;;;;;;7.43;4.45;;;;;;;26.67;62.69;101959.09;5248749;28;20533;-72
2023/08/23 10:16:40;;;;;;;6.72;4.70;;;;;;;26.59;65.09;101953.91;5244012;28;20581;-73
2023/08/23 10:19:11;;;;;;;7.50;4.00;;;;;;;26.75;65.22;101950.81;5245019;28;20080;-73
2023/08/23 10:21:42;;;;;;;6.23;4.63;;;;;;;26.76;61.12;101954.31;5229310;28;20025;-73
2023/08/23 10:24:14;;;;;;;5.83;4.50;;;;;;;26.95;62.97;101944.53;5247162;28;20814;-73
2023/08/23 10:26:49;;;;;;;7.97;4.40;;;;;;;27.10;63.55;101955.84;5246015;28;20062;-73
2023/08/23 10:29:27;;;;;;;5.70;3.95;;;;;;;27.26;61.63;101952.72;5247909;28;20036;-73
2023/08/23 10:32:04;;;;;;;5.43;4.03;;;;;;;27.29;63.40;101954.16;5247256;28;20094;-73
2023/08/23 10:34:37;;;;;;;6.57;4.10;;;;;;;27.25;61.22;101952.94;5243717;28;20493;-72
2023/08/23 10:37:16;;;;;;;5.00;3.13;;;;;;;27.54;61.05;101951.53;5246997;28;20529;-72
2023/08/23 10:39:49;;;;;;;7.70;4.65;;;;;;;27.34;57.47;101941.69;5242826;28;20047;-72
2023/08/23 10:42:22;;;;;;;5.75;3.78;;;;;;;27.57;58.29;101943.84;5242757;28;20147;-72
2023/08/23 10:44:59;;;;;;;6.15;4.40;;;;;;;27.74;56.50;101938.81;5241392;28;20386;-72
2023/08/23 10:47:36;;;;;;;6.65;4.40;;;;;;;27.51;58.21;101927.75;5244994;28;20063;-72
2023/08/23 10:50:07;;;;;;;5.07;3.70;;;;;;;27.49;55.35;101930.63;5245015;28;20486;-72
2023/08/23 10:52:39;;;;;;;3.60;2.87;;;;;;;27.64;54.98;101930.34;5245351;28;20033;-72
2023/08/23 10:55:10;;;;;;;7.87;3.53;;;;;;;27.61;51.08;101933.47;5246220;28;20382;-72
2023/08/23 10:57:41;;;;;;;5.60;3.30;;;;;;;27.65;51.75;101934.69;5246544;28;20038;-72
2023/08/23 11:00:13;;;;;;;4.23;2.50;;;;;;;28.01;53.65;101919.75;5226656;28;20025;-72
2023/08/23 11:02:44;;;;;;;4.97;3.15;;;;;;;28.00;50.67;101915.41;5245698;28;20036;-72
2023/08/23 11:05:16;;;;;;;4.80;3.23;;;;;;;28.03;51.27;101913.06;5242710;28;20067;-72
2023/08/23 11:07:49;;;;;;;5.43;3.05;;;;;;;28.13;52.15;101912.59;5241631;28;20050;-72
2023/08/23 11:10:20;;;;;;;4.82;2.58;;;;;;;28.25;52.65;101915.38;5239416;28;20288;-72
2023/08/23 11:12:52;;;;;;;7.20;2.70;;;;;;;28.51;49.99;101906.25;5238589;28;20033;-72
2023/08/23 11:15:24;;;;;;;4.87;2.40;;;;;;;28.59;48.90;101898.66;5241773;28;20032;-72
2023/08/23 11:17:56;;;;;;;;;;;;;;;29.40;45.52;101902.06;5223566;28;20021;-72
2023/08/23 11:20:28;;;;;;;4.63;2.63;;;;;;;28.52;47.14;101899.78;5239538;28;19994;-73
2023/08/23 11:22:59;;;;;;;4.13;2.72;;;;;;;28.51;46.69;101893.59;5238122;28;20031;-73
2023/08/23 11:25:30;;;;;;;5.67;2.40;;;;;;;28.63;45.14;101896.34;5239311;28;20017;-73
2023/08/23 11:28:05;;;;;;;3.90;2.10;;;;;;;28.85;45.14;101894.84;5222395;28;20029;-73
2023/08/23 11:30:36;;;;;;;4.28;2.10;;;;;;;28.70;43.57;101891.72;5237333;28;20526;-72
2023/08/23 11:33:08;;;;;;;4.10;2.20;;;;;;;28.98;42.71;101893.91;5239209;28;20033;-73
2023/08/23 11:35:40;;;;;;;7.50;3.08;;;;;;;28.73;43.93;101890.44;5235960;28;20049;-73
2023/08/23 11:38:11;;;;;;;4.47;2.70;;;;;;;28.96;46.41;101895.13;5241069;28;20493;-72
2023/08/23 11:40:45;;;;;;;4.17;2.73;;;;;;;29.12;45.27;101891.84;5240655;28;20640;-73
2023/08/23 11:43:16;;;;;;;6.05;2.20;;;;;;;29.15;46.55;101891.38;5234629;28;20175;-73